createdAt,value
2022-12-19T07:14:10.850Z,102734.88
2022-12-19T07:16:40.119Z,102723.91
2022-12-19T07:19:14.289Z,102726.50
2022-12-19T07:21:45.672Z,102727.56
2022-12-19T07:24:17.160Z,102723.66
2022-12-19T07:26:48.662Z,102708.97
2022-12-19T07:29:20.082Z,102712.78
2022-12-19T07:31:50.313Z,102718.75
2022-12-19T07:34:21.916Z,102712.44
2022-12-19T07:36:56.385Z,102711.50
2022-12-19T07:39:27.557Z,102715.38
2022-12-19T07:42:03.565Z,102710.94
2022-12-19T07:44:45.125Z,102703.13
2022-12-19T07:47:16.672Z,102716.06
2022-12-19T07:49:47.391Z,102716.53
2022-12-19T07:52:20.425Z,102719.22
2022-12-19T07:54:51.209Z,102723.41
2022-12-19T07:57:20.507Z,102720.09
2022-12-19T07:59:56.446Z,102716.44
2022-12-19T08:02:27.928Z,102713.34
2022-12-19T08:05:01.994Z,102723.75
2022-12-19T08:07:38.780Z,102716.28
2022-12-19T08:10:13.394Z,102726.25
2022-12-19T08:12:46.795Z,102721.44
2022-12-19T08:15:23.427Z,102734.91
2022-12-19T08:17:53.656Z,102732.94
2022-12-19T08:20:27.945Z,102737.25
2022-12-19T08:23:06.446Z,102729.47
2022-12-19T08:25:39.836Z,102732.06
2022-12-19T08:28:10.585Z,102726.94
2022-12-19T08:30:41.636Z,102727.91
2022-12-19T08:33:12.372Z,102728.25
2022-12-19T08:35:44.582Z,102733.75
2022-12-19T08:38:15.686Z,102730.56
2022-12-19T08:40:54.571Z,102722.13
2022-12-19T08:43:34.255Z,102727.59
2022-12-19T08:46:02.313Z,102726.13
2022-12-19T08:48:31.845Z,102726.78
2022-12-19T08:51:07.581Z,102720.78
2022-12-19T08:53:42.561Z,102725.28
2022-12-19T08:56:19.743Z,102714.97
2022-12-19T08:58:53.970Z,102719.66
2022-12-19T09:01:26.273Z,102707.88
2022-12-19T09:05:40.038Z,102722.47
2022-12-19T09:07:00.754Z,102733.06
2022-12-19T09:09:34.731Z,102720.94
2022-12-19T09:12:08.027Z,102729.72
2022-12-19T09:14:41.150Z,102722.38
2022-12-19T09:17:12.134Z,102732.84
2022-12-19T09:19:48.187Z,102728.25
2022-12-19T09:22:21.786Z,102733.53
2022-12-19T09:24:59.445Z,102729.91
2022-12-19T09:27:47.445Z,102729.22
2022-12-19T09:30:20.909Z,102727.75
2022-12-19T09:32:54.478Z,102735.22
2022-12-19T09:35:30.483Z,102734.03
2022-12-19T09:38:04.212Z,102744.81
2022-12-19T09:41:03.944Z,102736.03
2022-12-19T09:44:19.273Z,102732.69
2022-12-19T09:47:13.510Z,102728.50
2022-12-19T09:49:45.179Z,102731.94
2022-12-19T09:52:21.803Z,102733.75
2022-12-19T09:55:21.697Z,102727.16
2022-12-19T09:57:58.084Z,102715.50
2022-12-19T10:00:38.440Z,102722.34
2022-12-19T10:03:39.758Z,102718.53
2022-12-19T10:07:08.807Z,102721.00
2022-12-19T10:10:28.424Z,102723.97
2022-12-19T10:12:51.392Z,102716.84
2022-12-19T10:15:29.277Z,102720.34
2022-12-19T10:18:31.275Z,102717.50
2022-12-19T10:21:59.036Z,102714.00
2022-12-19T10:24:56.684Z,102712.50
2022-12-19T10:27:59.731Z,102725.94
2022-12-19T10:30:45.443Z,102711.69
2022-12-19T10:33:29.503Z,102710.84
2022-12-19T10:36:03.202Z,102718.47
2022-12-19T10:38:38.915Z,102705.53
2022-12-19T10:41:25.947Z,102695.75
2022-12-19T10:44:10.854Z,102697.41
2022-12-19T10:46:55.371Z,102698.59
2022-12-19T10:49:39.120Z,102692.41
2022-12-19T10:52:16.485Z,102687.56
2022-12-19T10:54:49.547Z,102693.84
2022-12-19T10:57:23.182Z,102679.38
2022-12-19T11:00:14.645Z,102684.38
2022-12-19T11:03:04.670Z,102686.06
2022-12-19T11:05:38.960Z,102675.44
2022-12-19T11:08:19.811Z,102674.91
2022-12-19T11:12:28.449Z,102683.38
2022-12-19T11:16:42.570Z,102678.56
2022-12-19T11:29:15.666Z,102670.47
2022-12-19T11:29:44.791Z,102670.47
2022-12-19T11:29:54.826Z,102663.63
2022-12-19T11:30:46.766Z,102650.06
2022-12-19T11:32:51.759Z,102646.91
2022-12-19T11:35:37.155Z,102642.53
2022-12-19T11:38:17.723Z,102631.59
2022-12-19T11:41:03.001Z,102633.38
2022-12-19T11:44:02.430Z,102635.97
2022-12-19T11:46:57.922Z,102624.94
2022-12-19T11:49:46.235Z,102623.03
2022-12-19T11:55:56.108Z,102619.59
2022-12-19T11:58:30.334Z,102605.63
2022-12-19T12:01:39.843Z,102613.00
2022-12-19T12:04:18.190Z,102612.50
2022-12-19T12:06:56.535Z,102602.84
2022-12-19T12:14:47.240Z,102601.09
2022-12-19T12:22:53.480Z,102610.47
2022-12-19T12:29:25.595Z,102606.09
2022-12-19T12:31:18.923Z,102601.66
2022-12-19T12:31:47.569Z,102581.63
2022-12-19T12:31:50.281Z,102588.72
2022-12-19T12:35:16.247Z,102583.06
2022-12-19T12:35:16.430Z,102581.75
2022-12-19T12:39:25.475Z,102583.41
2022-12-19T12:42:07.236Z,102571.78
2022-12-19T12:44:47.995Z,102569.78
2022-12-19T12:47:30.698Z,102570.09
2022-12-19T12:50:18.949Z,102568.34
2022-12-19T12:52:54.993Z,102574.47
2022-12-19T12:55:42.926Z,102577.53
2022-12-19T12:58:54.681Z,102564.03
2022-12-19T13:01:40.647Z,102559.31
2022-12-19T13:04:11.909Z,102566.03
2022-12-19T13:07:13.205Z,102556.53
2022-12-19T13:09:47.907Z,102557.16
2022-12-19T13:12:47.578Z,102555.72
2022-12-19T13:15:41.656Z,102559.88
2022-12-19T13:18:36.271Z,102558.31
2022-12-19T13:21:10.017Z,102558.19
2022-12-19T13:23:40.665Z,102554.97
2022-12-19T13:26:45.638Z,102552.97
2022-12-19T13:29:56.803Z,102555.44
2022-12-19T13:32:32.839Z,102552.28
2022-12-19T13:36:25.215Z,102541.25
2022-12-19T13:40:01.729Z,102556.66
2022-12-19T13:41:49.244Z,102550.06
2022-12-19T13:44:22.974Z,102549.44
2022-12-19T13:46:54.370Z,102553.84
2022-12-19T13:49:36.786Z,102554.09
2022-12-19T13:52:17.507Z,102553.97
2022-12-19T13:54:59.809Z,102556.31
2022-12-19T13:57:31.549Z,102550.31
2022-12-19T14:00:10.157Z,102554.31
2022-12-19T14:02:53.165Z,102549.84
2022-12-19T14:06:17.831Z,102553.47
2022-12-19T14:08:24.967Z,102550.53
2022-12-19T14:11:35.002Z,102552.19
2022-12-19T14:14:27.450Z,102554.66
2022-12-19T14:17:12.915Z,102555.53
2022-12-19T14:20:06.691Z,102557.28
2022-12-19T14:22:45.472Z,102552.38
2022-12-19T14:28:15.282Z,102540.09
2022-12-19T14:28:29.557Z,102540.78
2022-12-19T14:31:05.493Z,102542.00
2022-12-19T14:34:04.299Z,102541.94
2022-12-19T14:36:43.952Z,102543.25
2022-12-19T14:39:29.300Z,102544.00
2022-12-19T14:43:55.807Z,102545.47
2022-12-19T14:54:01.798Z,102543.69
2022-12-19T14:54:03.915Z,102546.59
2022-12-19T14:54:40.197Z,102551.59
2022-12-19T14:58:51.509Z,102556.09
2022-12-19T15:01:07.375Z,102549.72
2022-12-19T15:03:36.096Z,102558.50
2022-12-19T15:07:05.719Z,102545.47
2022-12-19T15:11:00.712Z,102548.31
2022-12-19T15:13:13.067Z,102547.16
2022-12-19T15:15:37.681Z,102551.94
2022-12-19T15:18:39.350Z,102549.13
2022-12-19T15:21:13.194Z,102549.97
2022-12-19T15:23:45.067Z,102550.16
2022-12-19T15:26:20.526Z,102548.78
2022-12-19T15:28:56.313Z,102549.91
2022-12-19T15:31:38.964Z,102553.88
2022-12-19T15:34:34.702Z,102555.19
2022-12-19T15:37:07.330Z,102548.59
2022-12-19T15:39:38.864Z,102551.13
2022-12-19T15:42:18.987Z,102554.53
2022-12-19T15:44:56.760Z,102537.00
2022-12-19T15:47:37.670Z,102541.00
2022-12-19T15:50:28.426Z,102542.16
2022-12-19T15:52:58.998Z,102540.00
2022-12-19T15:55:36.614Z,102540.44
2022-12-19T15:58:12.464Z,102532.38
2022-12-19T16:00:50.723Z,102534.72
2022-12-19T16:03:27.284Z,102526.91
2022-12-19T16:06:03.411Z,102537.34
2022-12-19T16:08:31.755Z,102538.78
2022-12-19T16:11:02.602Z,102541.84
2022-12-19T16:13:40.430Z,102543.03
2022-12-19T16:16:16.004Z,102539.03
2022-12-19T16:18:47.559Z,102543.41
2022-12-19T16:21:26.111Z,102553.91
2022-12-19T16:24:07.887Z,102545.41
2022-12-19T16:26:40.690Z,102546.47
2022-12-19T16:29:29.258Z,102539.66
2022-12-19T16:32:08.349Z,102538.81
2022-12-19T16:34:47.718Z,102538.53
2022-12-19T16:37:32.060Z,102532.19
2022-12-19T16:40:08.219Z,102539.91
2022-12-19T16:42:39.558Z,102537.22
2022-12-19T16:45:28.972Z,102538.94
2022-12-19T16:48:16.876Z,102545.66
2022-12-19T16:50:55.033Z,102535.19
2022-12-19T16:53:30.871Z,102543.53
2022-12-19T16:56:04.800Z,102531.28
2022-12-19T16:58:43.267Z,102542.47
2022-12-19T17:01:15.509Z,102542.34
2022-12-19T17:03:48.048Z,102536.25
2022-12-19T17:06:18.536Z,102530.59
2022-12-19T17:08:46.604Z,102538.59
2022-12-19T17:11:17.994Z,102540.59
2022-12-19T17:13:56.142Z,102537.28
2022-12-19T17:16:26.150Z,102537.63
2022-12-19T17:19:01.150Z,102534.94
2022-12-19T17:21:29.071Z,102540.34
2022-12-19T17:23:59.631Z,102550.56
2022-12-19T17:26:27.558Z,102544.22
2022-12-19T17:29:00.593Z,102545.84
2022-12-19T17:31:38.180Z,102547.00
2022-12-19T17:34:17.570Z,102547.69
2022-12-19T17:36:45.822Z,102553.59
2022-12-19T17:39:26.559Z,102547.66
2022-12-19T17:42:17.196Z,102554.84
2022-12-19T17:44:45.268Z,102551.66
2022-12-19T17:47:17.308Z,102566.59
2022-12-19T17:49:48.608Z,102560.19
2022-12-19T17:52:22.633Z,102549.75
2022-12-19T17:54:52.913Z,102544.25
2022-12-19T17:57:37.313Z,102550.84
2022-12-19T18:00:11.592Z,102552.34
2022-12-19T18:02:53.110Z,102542.81
2022-12-19T18:05:30.871Z,102545.63
2022-12-19T18:08:24.837Z,102545.66
2022-12-19T18:11:09.005Z,102544.34
2022-12-19T18:13:40.273Z,102545.72
2022-12-19T18:16:24.687Z,102548.09
2022-12-19T18:19:00.422Z,102545.72
2022-12-19T18:21:36.199Z,102536.44
2022-12-19T18:24:10.781Z,102537.00
2022-12-19T18:26:49.595Z,102548.97
2022-12-19T18:29:22.929Z,102547.06
2022-12-19T18:32:01.860Z,102558.09
2022-12-19T18:34:38.286Z,102555.66
2022-12-19T18:37:28.436Z,102553.66
2022-12-19T18:40:04.144Z,102559.97
2022-12-19T18:42:39.867Z,102551.66
2022-12-19T18:45:23.156Z,102553.16
2022-12-19T18:48:00.411Z,102551.66
2022-12-19T18:50:33.693Z,102554.97
2022-12-19T18:53:21.815Z,102546.81
2022-12-19T18:56:00.111Z,102549.88
2022-12-19T18:58:36.173Z,102540.91
2022-12-19T19:01:13.676Z,102542.44
2022-12-19T19:03:53.234Z,102539.59
2022-12-19T19:06:38.423Z,102535.28
2022-12-19T19:09:20.348Z,102536.09
2022-12-19T19:12:13.704Z,102536.66
2022-12-19T19:14:43.514Z,102533.63
2022-12-19T19:17:30.552Z,102546.06
2022-12-19T19:20:04.202Z,102533.63
2022-12-19T19:22:36.987Z,102542.09
2022-12-19T19:25:10.630Z,102537.13
2022-12-19T19:27:44.913Z,102537.59
2022-12-19T19:30:18.368Z,102541.97
2022-12-19T19:32:59.174Z,102534.31
2022-12-19T19:35:38.078Z,102530.38
2022-12-19T19:38:14.836Z,102538.84
2022-12-19T19:40:51.170Z,102532.03
2022-12-19T19:43:23.252Z,102526.88
2022-12-19T19:46:06.826Z,102527.38
2022-12-19T19:48:42.656Z,102520.28
2022-12-19T19:51:19.821Z,102521.09
2022-12-19T19:54:01.802Z,102522.47
2022-12-19T19:56:40.666Z,102522.47
2022-12-19T19:59:18.713Z,102517.69
2022-12-19T20:01:56.799Z,102524.97
2022-12-19T20:04:38.376Z,102518.50
2022-12-19T20:07:17.675Z,102517.19
2022-12-19T20:09:54.662Z,102518.50
2022-12-19T20:12:24.763Z,102521.91
2022-12-19T20:15:03.136Z,102514.69
2022-12-19T20:17:41.594Z,102510.38
2022-12-19T20:20:19.660Z,102512.03
2022-12-19T20:22:54.964Z,102510.91
2022-12-19T20:25:34.599Z,102501.50
2022-12-19T20:28:19.198Z,102501.00
2022-12-19T20:30:54.293Z,102506.22
2022-12-19T20:33:26.344Z,102508.38
2022-12-19T20:36:09.998Z,102501.31
2022-12-19T20:38:45.740Z,102500.59
2022-12-19T20:41:13.963Z,102502.72
2022-12-19T20:43:53.317Z,102502.44
2022-12-19T20:46:32.139Z,102505.50
2022-12-19T20:49:08.317Z,102503.94
2022-12-19T20:51:47.941Z,102493.31
2022-12-19T20:54:24.173Z,102500.13
2022-12-19T20:57:00.619Z,102500.44
2022-12-19T20:59:36.718Z,102488.84
2022-12-19T21:02:12.553Z,102493.16
2022-12-19T21:04:48.457Z,102487.41
2022-12-19T21:07:27.421Z,102482.44
2022-12-19T21:09:59.862Z,102485.81
2022-12-19T21:12:35.336Z,102487.44
2022-12-19T21:15:08.197Z,102485.25
2022-12-19T21:17:42.381Z,102487.88
2022-12-19T21:20:17.828Z,102501.53
2022-12-19T21:22:50.656Z,102484.47
2022-12-19T21:25:26.666Z,102476.81
2022-12-19T21:28:00.543Z,102476.53
2022-12-19T21:30:38.774Z,102477.47
2022-12-19T21:33:11.679Z,102482.44
2022-12-19T21:35:46.134Z,102484.09
2022-12-19T21:38:23.340Z,102487.88
2022-12-19T21:40:55.851Z,102491.41
2022-12-19T21:43:28.657Z,102483.94
2022-12-19T21:46:33.339Z,102478.31
2022-12-19T21:49:08.663Z,102484.75
2022-12-19T21:51:39.348Z,102486.91
2022-12-19T21:54:21.130Z,102486.56
2022-12-19T21:56:57.026Z,102485.41
2022-12-19T21:59:41.263Z,102485.75
2022-12-19T22:02:20.872Z,102495.91
2022-12-19T22:04:58.983Z,102482.63
2022-12-19T22:07:32.127Z,102485.25
2022-12-19T22:10:11.815Z,102472.88
2022-12-19T22:12:47.405Z,102473.50
2022-12-19T22:15:19.869Z,102465.25
2022-12-19T22:17:55.829Z,102469.09
2022-12-19T22:20:31.440Z,102472.91
2022-12-19T22:23:09.719Z,102467.34
2022-12-19T22:25:51.097Z,102471.69
2022-12-19T22:28:27.434Z,102461.13
2022-12-19T22:31:00.547Z,102467.72
2022-12-19T22:33:35.700Z,102462.06
2022-12-19T22:36:15.388Z,102455.59
2022-12-19T22:39:13.352Z,102449.00
2022-12-19T22:41:52.051Z,102455.97
2022-12-19T22:44:30.495Z,102450.13
2022-12-19T22:47:03.500Z,102452.56
2022-12-19T22:49:45.929Z,102446.91
2022-12-19T22:52:26.908Z,102457.47
2022-12-19T22:55:08.780Z,102445.03
2022-12-19T22:57:46.477Z,102452.03
2022-12-19T23:00:21.972Z,102452.78
2022-12-19T23:03:03.809Z,102447.25
2022-12-19T23:05:40.899Z,102450.41
2022-12-19T23:08:21.631Z,102443.94
2022-12-19T23:10:56.473Z,102446.84
2022-12-19T23:13:37.347Z,102446.47
2022-12-19T23:16:13.875Z,102443.31
2022-12-19T23:18:47.178Z,102446.03
2022-12-19T23:21:27.161Z,102440.91
2022-12-19T23:24:08.728Z,102438.31
2022-12-19T23:26:42.405Z,102443.84
2022-12-19T23:29:20.377Z,102443.81
2022-12-19T23:31:57.891Z,102437.13
2022-12-19T23:34:30.902Z,102436.88
2022-12-19T23:37:11.523Z,102434.44
2022-12-19T23:39:52.017Z,102426.09
2022-12-19T23:42:30.596Z,102431.16
2022-12-19T23:45:04.575Z,102436.34
2022-12-19T23:47:42.003Z,102429.75
2022-12-19T23:50:17.895Z,102434.56
2022-12-19T23:52:53.792Z,102435.63
2022-12-19T23:55:30.683Z,102425.72
2022-12-19T23:58:11.246Z,102425.63
